Time;durP1;ratioP1;P1;durP2;ratioP2;P2;SDS_P1;SDS_P2;PMS_P1;PMS_P2;Temp;Humidity;BMP_temperature;BMP_pressure;BME280_temperature;BME280_humidity;BME280_pressure;Samples;Min_cycle;Max_cycle;Signal;HPM_P1;HPM_P2
2023/04/16 05:03:38;;;;;;;18.58;10.30;;;7.90;99.90;;;;;;4925050;27;20056;-74
2023/04/16 05:06:03;;;;;;;16.90;10.50;;;7.90;99.90;;;;;;4936866;29;20329;-74
2023/04/16 05:08:29;;;;;;;17.20;10.13;;;7.90;99.90;;;;;;4942932;29;20026;-76
2023/04/16 05:10:55;;;;;;;18.58;10.80;;;7.90;99.90;;;;;;4937624;29;20071;-75
2023/04/16 05:13:24;;;;;;;18.38;10.48;;;7.90;99.90;;;;;;4930329;29;20063;-76
2023/04/16 05:15:49;;;;;;;16.40;9.57;;;7.90;99.90;;;;;;4913797;29;20020;-73
2023/04/16 05:18:15;;;;;;;17.48;10.52;;;7.90;99.90;;;;;;4910878;29;20024;-73
2023/04/16 05:20:41;;;;;;;16.65;10.18;;;7.90;99.90;;;;;;4940918;29;20197;-75
2023/04/16 05:23:07;;;;;;;17.80;10.57;;;7.90;99.90;;;;;;4921761;29;20031;-74
2023/04/16 05:25:33;;;;;;;17.45;10.23;;;7.90;99.90;;;;;;4946358;29;20031;-75
2023/04/16 05:27:59;;;;;;;18.70;11.30;;;7.80;99.90;;;;;;4914113;29;20035;-73
2023/04/16 05:30:30;;;;;;;19.05;10.98;;;7.90;99.90;;;;;;4929704;29;20035;-75
2023/04/16 05:32:59;;;;;;;20.40;12.00;;;7.80;99.90;;;;;;4913318;29;20202;-75
2023/04/16 05:35:25;;;;;;;18.90;11.68;;;7.90;99.90;;;;;;4945604;29;20217;-75
2023/04/16 05:37:54;;;;;;;24.67;13.32;;;7.90;99.90;;;;;;4929572;29;20038;-74
2023/04/16 05:40:20;;;;;;;22.35;13.15;;;7.90;99.90;;;;;;4946420;29;20050;-76
2023/04/16 05:42:49;;;;;;;25.85;14.55;;;7.90;99.90;;;;;;4928736;29;20078;-75
2023/04/16 05:45:14;;;;;;;28.38;15.88;;;7.90;99.90;;;;;;4926859;29;20335;-74
2023/04/16 05:47:41;;;;;;;30.45;16.48;;;7.90;99.90;;;;;;4906062;29;20067;-74
2023/04/16 05:50:08;;;;;;;29.00;16.27;;;7.80;99.90;;;;;;4942461;29;20095;-75
2023/04/16 05:52:34;;;;;;;30.60;17.08;;;7.90;99.90;;;;;;4946189;29;20090;-77
2023/04/16 05:55:00;;;;;;;31.70;17.63;;;7.80;99.90;;;;;;4946102;29;20132;-75
2023/04/16 05:57:27;;;;;;;33.33;17.48;;;7.90;99.90;;;;;;4923360;29;20214;-75
2023/04/16 05:59:54;;;;;;;31.47;18.03;;;7.90;99.90;;;;;;4939325;29;20038;-75
2023/04/16 06:02:19;;;;;;;32.63;18.45;;;7.90;99.90;;;;;;4915223;29;20064;-73
2023/04/16 06:04:48;;;;;;;31.20;17.73;;;7.80;99.90;;;;;;4944082;29;20051;-77
2023/04/16 06:07:14;;;;;;;34.38;19.02;;;7.80;99.90;;;;;;4945528;29;20099;-77
2023/04/16 06:09:40;;;;;;;39.30;21.35;;;7.80;99.90;;;;;;4940758;29;20219;-73
2023/04/16 06:12:11;;;;;;;37.22;19.52;;;7.80;99.90;;;;;;4893571;29;20203;-78
2023/04/16 06:14:37;;;;;;;37.15;20.02;;;7.90;99.90;;;;;;4926234;29;20045;-75
2023/04/16 06:17:11;;;;;;;33.78;19.30;;;7.90;99.90;;;;;;4910842;29;20036;-73
2023/04/16 06:19:40;;;;;;;41.50;21.45;;;7.90;99.90;;;;;;4929470;29;20233;-73
2023/04/16 06:22:12;;;;;;;37.65;19.95;;;7.90;99.90;;;;;;4945900;29;20034;-75
2023/04/16 06:24:44;;;;;;;34.60;19.77;;;7.90;99.90;;;;;;4928401;29;20094;-75
2023/04/16 06:27:41;;;;;;;35.00;19.50;;;8.00;99.90;;;;;;4945211;29;20032;-74
2023/04/16 06:30:31;;;;;;;37.72;19.67;;;8.00;99.90;;;;;;4945178;29;20031;-78
2023/04/16 06:36:21;;;;;;;34.28;18.13;;;8.00;99.90;;;;;;4942009;29;20054;-74
2023/04/16 06:38:47;;;;;;;34.20;19.27;;;8.00;99.90;;;;;;4909069;29;20050;-73
2023/04/16 06:41:25;;;;;;;35.45;19.75;;;8.00;99.90;;;;;;4909465;29;20322;-74
2023/04/16 06:43:51;;;;;;;;;;;8.10;99.90;;;;;;4909431;29;20047;-75
2023/04/16 06:46:16;;;;;;;31.83;17.88;;;8.20;99.90;;;;;;4926108;29;19918;-74
2023/04/16 06:48:42;;;;;;;31.67;18.85;;;8.20;99.90;;;;;;4925832;29;20032;-72
2023/04/16 06:51:08;;;;;;;35.38;20.05;;;8.20;99.90;;;;;;4926350;29;20059;-72
2023/04/16 06:53:36;;;;;;;33.13;19.42;;;8.20;99.90;;;;;;4909526;29;20059;-72
2023/04/16 06:56:02;;;;;;;32.77;19.30;;;8.30;99.90;;;;;;4908947;29;20035;-72
2023/04/16 06:58:31;;;;;;;32.05;18.30;;;8.30;99.90;;;;;;4909899;29;20032;-74
2023/04/16 07:00:58;;;;;;;35.17;18.50;;;8.20;99.90;;;;;;4909083;29;20249;-74
2023/04/16 07:03:23;;;;;;;34.83;19.45;;;8.30;99.90;;;;;;4939387;29;20040;-74
2023/04/16 07:05:49;;;;;;;34.90;18.65;;;8.20;99.90;;;;;;4944787;29;20032;-72
2023/04/16 07:08:15;;;;;;;33.38;19.65;;;8.30;99.90;;;;;;4945351;29;20063;-73
2023/04/16 07:10:41;;;;;;;31.70;18.42;;;8.40;99.90;;;;;;4939275;29;20032;-73
2023/04/16 07:13:42;;;;;;;32.63;18.23;;;8.50;99.90;;;;;;4927932;29;20036;-74
2023/04/16 07:16:36;;;;;;;31.60;18.67;;;8.60;99.90;;;;;;4933309;29;20048;-75
2023/04/16 07:19:06;;;;;;;27.13;17.38;;;8.60;99.90;;;;;;4912444;29;20047;-74
2023/04/16 07:21:45;;;;;;;;;;;8.80;99.90;;;;;;4904124;29;20092;-74
2023/04/16 07:24:12;;;;;;;26.35;16.08;;;8.90;99.90;;;;;;4921324;29;20077;-71
2023/04/16 07:26:37;;;;;;;26.10;15.55;;;8.90;99.90;;;;;;4944740;29;20050;-74
2023/04/16 07:29:03;;;;;;;29.65;17.48;;;9.00;99.90;;;;;;4912120;29;20024;-73
2023/04/16 07:31:35;;;;;;;26.35;16.15;;;9.10;99.90;;;;;;4930149;29;20573;-74
2023/04/16 07:34:01;;;;;;;27.70;15.35;;;9.10;99.90;;;;;;4948168;29;20253;-73
2023/04/16 07:36:50;;;;;;;24.08;14.77;;;9.10;99.90;;;;;;4932829;29;20225;-73
2023/04/16 07:39:28;;;;;;;24.25;15.55;;;9.20;99.90;;;;;;4915833;29;20216;-72
2023/04/16 07:42:02;;;;;;;22.30;14.07;;;9.20;99.90;;;;;;4931430;29;20042;-73
2023/04/16 07:44:32;;;;;;;24.10;14.63;;;9.20;99.90;;;;;;4931113;29;20137;-73
2023/04/16 07:46:57;;;;;;;25.88;15.30;;;9.20;99.90;;;;;;4947792;29;20124;-72
2023/04/16 07:49:23;;;;;;;23.25;14.45;;;9.20;99.90;;;;;;4948010;29;20043;-70
2023/04/16 07:51:49;;;;;;;24.48;14.00;;;9.10;99.90;;;;;;4947833;29;20024;-72
2023/04/16 07:54:15;;;;;;;22.92;14.30;;;8.90;99.90;;;;;;4947963;29;20032;-74
2023/04/16 07:56:43;;;;;;;24.80;15.27;;;8.90;99.90;;;;;;4948540;29;20203;-72
2023/04/16 07:59:08;;;;;;;26.10;14.95;;;8.80;99.90;;;;;;4912575;29;20031;-72
2023/04/16 08:01:35;;;;;;;26.38;15.38;;;8.80;99.90;;;;;;4947498;29;20249;-72
2023/04/16 08:04:00;;;;;;;22.42;13.93;;;8.90;99.90;;;;;;4947615;29;20198;-73
2023/04/16 08:06:26;;;;;;;22.40;14.07;;;9.00;99.90;;;;;;4947827;29;20043;-74
2023/04/16 08:08:55;;;;;;;22.63;14.40;;;9.00;99.90;;;;;;4947558;29;20333;-73
2023/04/16 08:11:21;;;;;;;21.83;13.88;;;9.00;99.90;;;;;;4948053;29;20027;-73
2023/04/16 08:13:46;;;;;;;21.05;14.18;;;9.00;99.90;;;;;;4937973;29;20082;-73
2023/04/16 08:16:27;;;;;;;21.42;13.57;;;9.00;99.90;;;;;;4936408;29;20026;-74
2023/04/16 08:18:53;;;;;;;21.95;13.02;;;8.90;99.90;;;;;;4946728;29;20309;-73
2023/04/16 08:21:21;;;;;;;20.52;13.57;;;9.00;99.90;;;;;;4918345;29;20038;-73
2023/04/16 08:23:53;;;;;;;22.15;14.07;;;8.90;99.90;;;;;;4947182;29;20043;-74
2023/04/16 08:26:24;;;;;;;22.20;14.00;;;8.90;99.90;;;;;;4911357;29;20039;-74
2023/04/16 08:28:50;;;;;;;20.73;13.35;;;9.00;99.90;;;;;;4938082;29;20099;-73
2023/04/16 08:31:15;;;;;;;21.73;12.90;;;9.00;99.90;;;;;;4947205;29;20332;-72
2023/04/16 08:33:41;;;;;;;21.20;13.02;;;9.10;99.90;;;;;;4930622;29;20063;-73
2023/04/16 08:36:07;;;;;;;22.13;13.18;;;9.20;99.90;;;;;;4930009;29;20036;-74
2023/04/16 08:38:33;;;;;;;18.73;12.18;;;9.30;99.90;;;;;;4947411;29;20036;-72
2023/04/16 08:41:02;;;;;;;20.30;12.98;;;9.30;99.90;;;;;;4929656;29;20039;-74
2023/04/16 08:43:32;;;;;;;18.42;11.98;;;9.30;99.90;;;;;;4929549;29;20237;-72
2023/04/16 08:46:08;;;;;;;22.70;12.77;;;9.40;99.90;;;;;;4946667;29;20074;-73
2023/04/16 08:48:36;;;;;;;19.48;12.43;;;9.40;99.90;;;;;;4930487;29;20043;-73
2023/04/16 08:51:02;;;;;;;19.58;12.00;;;9.30;99.90;;;;;;4946807;29;20223;-74
2023/04/16 08:53:59;;;;;;;18.48;11.95;;;9.40;99.90;;;;;;4947078;29;20246;-73
2023/04/16 08:56:25;;;;;;;19.88;11.80;;;9.50;99.90;;;;;;4945823;29;20051;-74
2023/04/16 08:58:54;;;;;;;20.08;12.85;;;9.50;99.90;;;;;;4946569;29;20099;-75
2023/04/16 09:01:20;;;;;;;19.73;12.90;;;9.40;99.90;;;;;;4946811;29;20091;-72
2023/04/16 09:03:47;;;;;;;18.58;12.57;;;9.50;99.90;;;;;;4943740;29;20052;-73
2023/04/16 09:06:13;;;;;;;17.98;12.10;;;9.50;99.90;;;;;;4928046;29;20091;-75
2023/04/16 09:08:40;;;;;;;19.27;12.70;;;9.70;99.90;;;;;;4928190;29;20027;-72
2023/04/16 09:11:06;;;;;;;15.73;10.63;;;9.80;99.90;;;;;;4935954;29;20304;-76
2023/04/16 09:13:32;;;;;;;18.73;11.23;;;9.80;99.90;;;;;;4928110;29;20306;-75
2023/04/16 09:15:58;;;;;;;17.80;11.55;;;10.00;99.90;;;;;;4927644;29;20268;-73
2023/04/16 09:18:24;;;;;;;17.83;11.55;;;10.00;99.90;;;;;;4927945;29;20039;-73
2023/04/16 09:20:50;;;;;;;18.30;11.30;;;10.00;99.90;;;;;;4927159;29;20047;-73
2023/04/16 09:23:17;;;;;;;17.40;11.40;;;10.00;99.90;;;;;;4941047;29;20036;-72
2023/04/16 09:25:42;;;;;;;17.77;11.05;;;10.10;99.90;;;;;;4946820;29;20059;-75
2023/04/16 09:28:09;;;;;;;15.75;10.07;;;10.20;99.90;;;;;;4945550;29;20040;-73
2023/04/16 09:30:36;;;;;;;19.48;11.40;;;10.40;99.90;;;;;;4946252;29;20217;-73
2023/04/16 09:33:23;;;;;;;17.75;11.75;;;10.50;99.90;;;;;;4945792;29;20261;-75
2023/04/16 09:35:50;;;;;;;16.13;10.60;;;10.60;99.90;;;;;;4928631;29;20031;-74
2023/04/16 09:38:16;;;;;;;18.67;11.05;;;10.60;99.90;;;;;;4946566;29;20305;-72
2023/04/16 09:40:42;;;;;;;16.90;10.43;;;10.70;99.90;;;;;;4946004;29;20038;-73
2023/04/16 09:43:15;;;;;;;16.95;10.70;;;10.70;99.90;;;;;;4945980;29;20048;-72
2023/04/16 09:46:03;;;;;;;18.02;10.60;;;10.60;99.90;;;;;;4946146;29;20087;-74
2023/04/16 09:48:35;;;;;;;17.83;11.07;;;10.50;99.90;;;;;;4925360;29;20040;-75
2023/04/16 09:51:05;;;;;;;18.38;11.07;;;10.20;99.90;;;;;;4909772;29;20335;-73
2023/04/16 09:53:34;;;;;;;18.77;11.18;;;10.00;99.90;;;;;;4931244;29;20349;-74
2023/04/16 09:56:32;;;;;;;18.85;11.32;;;10.00;99.90;;;;;;4920662;29;20031;-73
2023/04/16 09:59:03;;;;;;;17.90;11.50;;;10.00;99.90;;;;;;4935177;29;20393;-74
2023/04/16 10:01:32;;;;;;;20.90;12.38;;;9.80;99.90;;;;;;4928684;29;20261;-74
2023/04/16 10:03:58;;;;;;;22.10;12.05;;;9.80;99.90;;;;;;4945640;29;20393;-75
2023/04/16 10:06:31;;;;;;;18.23;11.23;;;9.70;99.90;;;;;;4945640;29;20039;-72
2023/04/16 10:08:59;;;;;;;19.88;11.60;;;9.70;99.90;;;;;;4945810;29;20095;-73
2023/04/16 10:11:28;;;;;;;19.10;11.85;;;9.70;99.90;;;;;;4937436;29;20059;-74
2023/04/16 10:13:54;;;;;;;20.08;11.95;;;9.60;99.90;;;;;;4945109;29;20042;-72
2023/04/16 10:16:22;;;;;;;20.35;12.23;;;9.60;99.90;;;;;;4945550;29;20043;-72
2023/04/16 10:18:52;;;;;;;20.20;12.05;;;9.60;99.90;;;;;;4932731;29;20337;-75
2023/04/16 10:21:18;;;;;;;21.30;12.05;;;9.60;99.90;;;;;;4940761;29;20036;-74
2023/04/16 10:23:45;;;;;;;20.08;12.15;;;9.60;99.90;;;;;;4943113;29;20028;-74
2023/04/16 10:26:21;;;;;;;20.10;11.98;;;9.60;99.90;;;;;;4944903;29;20047;-74
2023/04/16 10:28:47;;;;;;;18.80;12.15;;;9.70;99.90;;;;;;4945526;29;20111;-74
2023/04/16 10:31:13;;;;;;;20.80;12.90;;;9.80;99.90;;;;;;4938182;29;20020;-74
2023/04/16 10:33:40;;;;;;;19.15;11.25;;;10.00;99.90;;;;;;4936072;29;20091;-74
2023/04/16 10:36:21;;;;;;;19.05;11.40;;;10.20;99.90;;;;;;4939151;29;20269;-75
2023/04/16 10:38:49;;;;;;;19.73;11.55;;;10.50;99.90;;;;;;4944591;29;20039;-74
2023/04/16 10:41:15;;;;;;;;;;;10.60;99.90;;;;;;4934945;29;20040;-71
2023/04/16 10:43:46;;;;;;;18.50;10.63;;;10.90;99.90;;;;;;4945097;29;20212;-71
2023/04/16 10:46:50;;;;;;;16.63;10.32;;;10.90;99.90;;;;;;4944719;29;20403;-72
2023/04/16 10:49:18;;;;;;;17.60;10.65;;;11.00;99.90;;;;;;4896363;29;20075;-73
2023/04/16 10:52:03;;;;;;;15.63;9.93;;;10.90;99.90;;;;;;4945005;29;20066;-73
2023/04/16 10:54:30;;;;;;;17.60;10.40;;;10.90;99.90;;;;;;4945411;29;20030;-72
2023/04/16 10:56:58;;;;;;;18.15;10.63;;;11.00;99.90;;;;;;4944437;29;20099;-72
2023/04/16 10:59:24;;;;;;;15.23;9.45;;;11.00;99.90;;;;;;4945100;29;20344;-72
2023/04/16 11:01:55;;;;;;;15.07;9.00;;;11.00;99.90;;;;;;4944645;29;20052;-73
2023/04/16 11:04:23;;;;;;;14.65;9.68;;;11.00;99.90;;;;;;4937673;29;20031;-73
2023/04/16 11:07:08;;;;;;;;;;;10.90;99.90;;;;;;4943434;29;20055;-73
2023/04/16 11:09:56;;;;;;;15.57;9.20;;;10.80;99.90;;;;;;4948832;29;19908;-70
2023/04/16 11:12:26;;;;;;;;;;;10.70;99.90;;;;;;4949699;29;20063;-72
2023/04/16 11:15:13;;;;;;;15.52;9.20;;;10.70;99.90;;;;;;4948915;29;19907;-71
2023/04/16 11:17:42;;;;;;;13.40;8.25;;;10.90;99.90;;;;;;4931085;29;20233;-71
2023/04/16 11:20:15;;;;;;;12.77;7.72;;;10.80;99.90;;;;;;4948092;29;20155;-72
2023/04/16 11:22:41;;;;;;;11.88;7.60;;;10.70;99.90;;;;;;4948804;29;20087;-73
2023/04/16 11:25:08;;;;;;;13.52;7.40;;;10.60;99.90;;;;;;4948409;29;20098;-72
2023/04/16 11:27:34;;;;;;;12.45;7.57;;;10.40;99.90;;;;;;4948333;29;20102;-73
2023/04/16 11:30:06;;;;;;;11.23;6.93;;;10.30;99.90;;;;;;4947809;29;20099;-72
2023/04/16 11:32:36;;;;;;;11.27;6.78;;;10.20;99.90;;;;;;4948371;29;20055;-72
2023/04/16 11:35:11;;;;;;;11.80;6.65;;;10.20;99.90;;;;;;4948402;29;20039;-71
2023/04/16 11:37:37;;;;;;;10.38;6.18;;;10.20;99.90;;;;;;4948598;29;20322;-71
2023/04/16 11:40:08;;;;;;;11.80;6.55;;;10.10;99.90;;;;;;4941391;29;20043;-72
2023/04/16 11:42:39;;;;;;;9.35;6.05;;;10.10;99.90;;;;;;4943556;29;20067;-72
2023/04/16 11:45:06;;;;;;;8.90;5.90;;;10.10;99.90;;;;;;4931085;29;20075;-74
2023/04/16 11:47:54;;;;;;;11.32;6.38;;;10.10;99.90;;;;;;4948641;29;20060;-76
2023/04/16 11:50:25;;;;;;;10.25;5.93;;;10.10;99.90;;;;;;4947913;29;20102;-71
2023/04/16 11:52:52;;;;;;;8.25;5.43;;;10.10;99.90;;;;;;4948195;29;20295;-71
2023/04/16 11:55:19;;;;;;;8.32;5.25;;;10.10;99.90;;;;;;4939001;29;20028;-75
2023/04/16 11:57:45;;;;;;;8.93;5.28;;;10.10;99.90;;;;;;4944404;29;20036;-73
2023/04/16 12:00:12;;;;;;;9.05;5.28;;;10.00;99.90;;;;;;4947918;29;20034;-72
2023/04/16 12:02:49;;;;;;;10.00;4.90;;;10.00;99.90;;;;;;4947656;29;20095;-71
2023/04/16 12:05:36;;;;;;;7.97;4.88;;;9.90;99.90;;;;;;4947781;29;20032;-72
2023/04/16 12:08:04;;;;;;;8.85;5.05;;;10.00;99.90;;;;;;4947287;29;20356;-71
2023/04/16 12:10:36;;;;;;;8.18;5.07;;;10.00;99.90;;;;;;4948006;29;20028;-73
2023/04/16 12:13:15;;;;;;;7.72;4.82;;;10.00;99.90;;;;;;4947785;29;20095;-74
2023/04/16 12:15:48;;;;;;;7.43;4.47;;;10.00;99.90;;;;;;4947697;29;20242;-71
2023/04/16 12:18:15;;;;;;;8.80;4.95;;;10.00;99.90;;;;;;4946310;29;20047;-71
2023/04/16 12:20:43;;;;;;;9.35;5.30;;;10.10;99.90;;;;;;4947830;29;20301;-73
2023/04/16 12:23:21;;;;;;;7.65;4.57;;;10.00;99.90;;;;;;4947089;29;20066;-74
2023/04/16 12:25:48;;;;;;;7.03;4.40;;;10.00;99.90;;;;;;4948039;29;20027;-73
2023/04/16 12:28:25;;;;;;;7.30;4.10;;;10.10;99.90;;;;;;4946938;29;20079;-68
2023/04/16 12:30:51;;;;;;;7.15;3.80;;;10.00;99.90;;;;;;4947502;29;20099;-71
2023/04/16 12:33:18;;;;;;;7.00;4.00;;;9.90;99.90;;;;;;4946910;29;20333;-73
2023/04/16 12:35:44;;;;;;;7.15;4.07;;;9.90;99.90;;;;;;4947468;29;20024;-74
2023/04/16 12:38:10;;;;;;;6.70;4.05;;;9.90;99.90;;;;;;4946793;29;20027;-71
2023/04/16 12:40:37;;;;;;;7.22;4.60;;;9.90;99.90;;;;;;4947628;29;20100;-75
2023/04/16 12:43:03;;;;;;;7.10;3.97;;;10.00;99.90;;;;;;4946947;29;20371;-73
2023/04/16 12:45:28;;;;;;;6.88;4.05;;;9.90;99.90;;;;;;4947231;29;20040;-73
2023/04/16 12:47:54;;;;;;;6.38;3.80;;;10.10;99.90;;;;;;4947653;29;20043;-72
2023/04/16 12:50:20;;;;;;;6.35;4.05;;;10.20;99.90;;;;;;4946954;29;20276;-71
2023/04/16 12:52:46;;;;;;;6.68;3.78;;;10.10;99.90;;;;;;4947047;29;20098;-71
2023/04/16 12:55:13;;;;;;;6.30;3.78;;;10.10;99.90;;;;;;4946425;29;20036;-71
2023/04/16 12:57:39;;;;;;;6.63;3.95;;;10.10;99.90;;;;;;4946599;29;20125;-72
2023/04/16 13:00:05;;;;;;;5.90;3.75;;;10.10;99.90;;;;;;4946530;29;20290;-72
2023/04/16 13:02:31;;;;;;;5.35;3.45;;;10.00;99.90;;;;;;4946497;29;20297;-70
2023/04/16 13:04:57;;;;;;;7.10;4.50;;;10.00;99.90;;;;;;4930710;29;20110;-72
2023/04/16 13:07:25;;;;;;;8.10;4.45;;;10.00;99.90;;;;;;4927719;29;20043;-71
2023/04/16 13:09:51;;;;;;;7.30;4.32;;;10.00;99.90;;;;;;4932194;29;20055;-71
2023/04/16 13:12:17;;;;;;;8.30;4.00;;;10.00;99.90;;;;;;4927429;29;20036;-71
2023/04/16 13:14:42;;;;;;;7.35;4.85;;;10.00;99.90;;;;;;4915193;29;20066;-71
2023/04/16 13:17:08;;;;;;;8.30;4.70;;;10.00;99.90;;;;;;4937814;29;20023;-74
2023/04/16 13:19:34;;;;;;;7.38;4.47;;;10.10;99.90;;;;;;4936405;29;20247;-70
2023/04/16 13:22:00;;;;;;;8.25;5.13;;;10.10;99.90;;;;;;4942823;29;20038;-71
2023/04/16 13:24:25;;;;;;;7.80;4.78;;;10.10;99.90;;;;;;4943265;29;20027;-72
2023/04/16 13:26:52;;;;;;;7.55;4.60;;;10.10;99.90;;;;;;4929215;29;20067;-70
2023/04/16 13:29:21;;;;;;;8.05;4.95;;;10.20;99.90;;;;;;4945792;29;20094;-73
2023/04/16 13:31:48;;;;;;;7.88;4.97;;;10.20;99.90;;;;;;4945207;29;20028;-72
2023/04/16 13:34:13;;;;;;;7.38;4.95;;;10.20;99.90;;;;;;4945750;29;20027;-72
2023/04/16 13:36:39;;;;;;;7.25;4.68;;;10.20;99.90;;;;;;4946264;29;20333;-70
2023/04/16 13:39:09;;;;;;;7.88;4.82;;;10.30;99.90;;;;;;4945782;29;20020;-73
2023/04/16 13:41:38;;;;;;;7.18;5.57;;;10.30;99.90;;;;;;4946431;29;20063;-74
2023/04/16 13:44:04;;;;;;;9.75;5.57;;;10.30;99.90;;;;;;4917390;29;20036;-72
2023/04/16 13:46:30;;;;;;;7.63;5.22;;;10.30;99.90;;;;;;4943753;29;20046;-71
2023/04/16 13:48:56;;;;;;;8.38;5.05;;;10.30;99.90;;;;;;4938962;29;20040;-72
2023/04/16 13:51:22;;;;;;;7.97;5.28;;;10.30;99.90;;;;;;4942396;29;20043;-71
2023/04/16 13:53:48;;;;;;;7.68;5.22;;;10.20;99.90;;;;;;4941126;29;20043;-72
2023/04/16 13:56:14;;;;;;;8.10;5.22;;;10.20;99.90;;;;;;4945351;29;20066;-71
2023/04/16 13:58:40;;;;;;;10.05;5.57;;;10.20;99.90;;;;;;4945963;29;20024;-72
2023/04/16 14:01:06;;;;;;;10.60;6.22;;;10.20;99.90;;;;;;4945295;29;20035;-72
2023/04/16 14:03:37;;;;;;;8.07;5.13;;;10.20;99.90;;;;;;4921145;29;20048;-73
2023/04/16 14:06:03;;;;;;;8.75;5.68;;;10.30;99.90;;;;;;4926718;29;20039;-72
2023/04/16 14:08:29;;;;;;;8.93;5.70;;;10.30;99.90;;;;;;4926370;29;20048;-75
2023/04/16 14:10:55;;;;;;;9.10;5.57;;;10.30;99.90;;;;;;4928768;29;20047;-73
2023/04/16 14:13:22;;;;;;;9.43;6.22;;;10.20;99.90;;;;;;4926302;29;20076;-72
2023/04/16 14:15:48;;;;;;;8.40;5.50;;;10.20;99.90;;;;;;4926433;29;20048;-71
2023/04/16 14:18:13;;;;;;;9.25;6.05;;;10.20;99.90;;;;;;4944207;29;20035;-71
2023/04/16 14:20:39;;;;;;;9.57;5.97;;;10.10;99.90;;;;;;4945625;29;20032;-70
2023/04/16 14:23:06;;;;;;;9.70;6.03;;;10.10;99.90;;;;;;4940663;29;20046;-72
2023/04/16 14:25:32;;;;;;;9.88;6.53;;;10.10;99.90;;;;;;4935847;29;20040;-73
2023/04/16 14:27:59;;;;;;;8.80;6.10;;;10.10;99.90;;;;;;4909431;29;20047;-72
2023/04/16 14:30:25;;;;;;;9.48;6.90;;;10.10;99.90;;;;;;4925833;29;20036;-71
2023/04/16 14:32:51;;;;;;;11.50;6.68;;;10.10;99.90;;;;;;4925968;29;20046;-71
2023/04/16 14:35:17;;;;;;;11.18;6.93;;;10.10;99.90;;;;;;4909264;29;20028;-71
2023/04/16 14:37:43;;;;;;;13.43;7.28;;;10.00;99.90;;;;;;4925965;29;20091;-72
2023/04/16 14:40:09;;;;;;;10.85;7.43;;;9.90;99.90;;;;;;4925378;29;20263;-73
2023/04/16 14:42:36;;;;;;;11.32;7.70;;;9.90;99.90;;;;;;4925981;29;20039;-71
2023/04/16 14:45:05;;;;;;;13.45;8.80;;;9.90;99.90;;;;;;4915666;29;20087;-72
2023/04/16 14:47:31;;;;;;;11.85;7.72;;;9.90;99.90;;;;;;4944544;29;20039;-71
2023/04/16 14:49:57;;;;;;;13.60;9.05;;;9.90;99.90;;;;;;4938806;29;20269;-71
2023/04/16 14:52:23;;;;;;;14.27;8.40;;;9.90;99.90;;;;;;4925336;29;20039;-71
2023/04/16 14:54:51;;;;;;;14.05;8.85;;;9.90;99.90;;;;;;4926116;29;20035;-71
2023/04/16 14:57:17;;;;;;;16.33;8.90;;;10.00;99.90;;;;;;4936186;29;20027;-71
2023/04/16 14:59:43;;;;;;;15.10;9.25;;;9.90;99.90;;;;;;4945078;29;20047;-71
2023/04/16 15:02:09;;;;;;;14.70;9.35;;;9.90;99.90;;;;;;4927560;29;20317;-72
2023/04/16 15:04:35;;;;;;;14.32;9.70;;;9.90;99.90;;;;;;4928792;29;20144;-70
2023/04/16 15:07:01;;;;;;;15.68;9.90;;;9.80;99.90;;;;;;4926179;29;20044;-71
2023/04/16 15:09:26;;;;;;;14.85;10.07;;;9.70;99.90;;;;;;4927705;29;20055;-72
2023/04/16 15:11:52;;;;;;;15.52;10.82;;;9.80;99.90;;;;;;4943561;29;20040;-71
2023/04/16 15:14:18;;;;;;;16.58;10.18;;;9.70;99.90;;;;;;4940036;29;20026;-74
2023/04/16 15:16:45;;;;;;;15.70;10.00;;;9.90;99.90;;;;;;4934036;29;20059;-70
2023/04/16 15:19:11;;;;;;;17.15;11.05;;;9.90;99.90;;;;;;4937545;29;20051;-72
2023/04/16 15:21:37;;;;;;;19.80;11.38;;;9.90;99.90;;;;;;4920820;29;20235;-72
2023/04/16 15:24:03;;;;;;;17.58;11.38;;;9.90;99.90;;;;;;4924513;29;20201;-72
2023/04/16 15:26:29;;;;;;;20.20;11.48;;;9.90;99.90;;;;;;4944280;29;20035;-72
2023/04/16 15:28:55;;;;;;;18.58;11.60;;;9.90;99.90;;;;;;4944706;29;20046;-71
2023/04/16 15:31:21;;;;;;;21.38;12.07;;;9.90;99.90;;;;;;4943464;29;20023;-73
2023/04/16 15:33:48;;;;;;;19.38;12.30;;;9.80;99.90;;;;;;4927781;29;20027;-71
2023/04/16 15:36:14;;;;;;;19.10;12.32;;;9.80;99.90;;;;;;4935170;29;20028;-72
2023/04/16 15:38:40;;;;;;;21.13;12.20;;;9.70;99.90;;;;;;4941365;29;21160;-73
2023/04/16 15:41:08;;;;;;;20.52;12.15;;;9.70;99.90;;;;;;4944392;29;20023;-72
2023/04/16 15:43:34;;;;;;;19.02;11.60;;;9.70;99.90;;;;;;4927520;29;20039;-71
2023/04/16 15:46:00;;;;;;;19.63;12.43;;;9.70;99.90;;;;;;4927758;29;20078;-71
2023/04/16 15:48:25;;;;;;;19.25;12.20;;;9.60;99.90;;;;;;4943986;29;20210;-72
2023/04/16 15:50:53;;;;;;;19.70;12.07;;;9.60;99.90;;;;;;4944504;29;20051;-72
2023/04/16 15:53:18;;;;;;;19.88;11.82;;;9.60;99.90;;;;;;4947170;29;20047;-72
2023/04/16 15:55:44;;;;;;;18.83;11.63;;;9.60;99.90;;;;;;4948034;29;20023;-71
2023/04/16 15:58:11;;;;;;;20.85;12.70;;;9.60;99.90;;;;;;4947682;29;20027;-72
2023/04/16 16:00:37;;;;;;;20.25;12.93;;;9.60;99.90;;;;;;4936589;29;20054;-72
2023/04/16 16:03:03;;;;;;;21.23;13.30;;;9.60;99.90;;;;;;4942128;29;20067;-72
2023/04/16 16:05:29;;;;;;;18.80;12.20;;;9.60;99.90;;;;;;4928085;29;20099;-71
2023/04/16 16:07:55;;;;;;;21.08;13.27;;;9.60;99.90;;;;;;4928916;29;20036;-71
2023/04/16 16:10:21;;;;;;;22.83;13.35;;;9.60;99.90;;;;;;4929697;29;20040;-71
2023/04/16 16:12:47;;;;;;;21.60;13.73;;;9.60;99.90;;;;;;4928992;29;20039;-73
2023/04/16 16:15:13;;;;;;;22.20;13.88;;;9.60;99.90;;;;;;4928487;29;20342;-73
2023/04/16 16:17:39;;;;;;;22.00;14.00;;;9.50;99.90;;;;;;4941912;29;20032;-72
2023/04/16 16:20:09;;;;;;;24.88;14.07;;;9.50;99.90;;;;;;4947752;29;20036;-73
2023/04/16 16:22:36;;;;;;;25.08;14.20;;;9.50;99.90;;;;;;4942300;29;20017;-72
2023/04/16 16:25:03;;;;;;;23.00;14.70;;;9.50;99.90;;;;;;4947265;29;20066;-73
2023/04/16 16:27:28;;;;;;;25.10;14.75;;;9.50;99.90;;;;;;4947247;29;20094;-72
2023/04/16 16:29:54;;;;;;;22.83;14.77;;;9.50;99.90;;;;;;4947063;29;20032;-71
2023/04/16 16:32:21;;;;;;;22.35;15.02;;;9.50;99.90;;;;;;4947203;29;20079;-72
2023/04/16 16:34:46;;;;;;;25.20;14.57;;;9.50;99.90;;;;;;4947333;29;20047;-72
2023/04/16 16:37:12;;;;;;;27.13;16.13;;;9.60;99.90;;;;;;4946542;29;20339;-70
2023/04/16 16:39:38;;;;;;;24.00;15.15;;;9.60;99.90;;;;;;4947218;29;20071;-71
2023/04/16 16:42:04;;;;;;;24.70;15.95;;;9.60;99.90;;;;;;4947179;29;20190;-72
2023/04/16 16:44:29;;;;;;;25.50;16.50;;;9.60;99.90;;;;;;4946817;29;20040;-72
2023/04/16 16:46:55;;;;;;;28.40;16.45;;;9.60;99.90;;;;;;4946852;29;20043;-72
2023/04/16 16:49:21;;;;;;;28.23;16.30;;;9.60;99.90;;;;;;4946363;29;20229;-72
2023/04/16 16:51:47;;;;;;;26.13;16.45;;;9.60;99.90;;;;;;4930141;29;20030;-73
2023/04/16 16:54:13;;;;;;;26.95;16.23;;;9.60;99.90;;;;;;4946347;29;20034;-72
2023/04/16 16:56:39;;;;;;;29.42;16.13;;;9.60;99.90;;;;;;4946467;29;20032;-71
2023/04/16 16:59:05;;;;;;;25.15;15.68;;;9.60;99.90;;;;;;4946902;29;20031;-72
2023/04/16 17:01:31;;;;;;;26.77;16.63;;;9.70;99.90;;;;;;4945876;29;20149;-72
2023/04/16 17:03:57;;;;;;;25.67;15.60;;;9.60;99.90;;;;;;4934734;29;20028;-74
2023/04/16 17:06:23;;;;;;;26.65;16.13;;;9.70;99.90;;;;;;4931298;29;20035;-72
2023/04/16 17:08:49;;;;;;;26.55;16.20;;;9.70;99.90;;;;;;4933667;29;20221;-72
2023/04/16 17:11:15;;;;;;;22.02;15.35;;;9.70;99.90;;;;;;4944046;29;20050;-72
2023/04/16 17:13:41;;;;;;;27.40;15.63;;;9.70;99.90;;;;;;4927416;29;20052;-71
2023/04/16 17:16:07;;;;;;;27.45;16.95;;;9.70;99.90;;;;;;4929573;29;20306;-72
2023/04/16 17:18:33;;;;;;;26.92;16.95;;;9.80;99.90;;;;;;4943217;29;20039;-71
2023/04/16 17:20:59;;;;;;;25.48;16.23;;;9.80;99.90;;;;;;4937128;29;20023;-72
2023/04/16 17:23:26;;;;;;;28.40;17.15;;;9.70;99.90;;;;;;4939995;29;20077;-72
2023/04/16 17:25:52;;;;;;;30.95;17.10;;;9.70;99.90;;;;;;4946048;29;20241;-71
2023/04/16 17:28:17;;;;;;;28.80;17.08;;;9.70;99.90;;;;;;4913604;29;20036;-72
2023/04/16 17:30:44;;;;;;;25.73;17.08;;;9.60;99.90;;;;;;4933727;29;20050;-71
2023/04/16 17:33:10;;;;;;;29.35;17.48;;;9.60;99.90;;;;;;4943012;29;20321;-72
2023/04/16 17:35:38;;;;;;;29.75;17.52;;;9.60;99.90;;;;;;4934848;29;20028;-70
2023/04/16 17:38:04;;;;;;;;;;;9.60;99.90;;;;;;4929997;29;20207;-72
2023/04/16 17:40:30;;;;;;;30.15;17.13;;;9.60;99.90;;;;;;4945279;29;19958;-72
2023/04/16 17:42:56;;;;;;;30.42;18.23;;;9.60;99.90;;;;;;4945853;29;20032;-70
2023/04/16 17:45:21;;;;;;;30.40;18.88;;;9.50;99.90;;;;;;4928595;29;20106;-71
2023/04/16 17:47:47;;;;;;;28.98;17.42;;;9.50;99.90;;;;;;4945906;29;20038;-72
2023/04/16 17:50:13;;;;;;;31.33;18.00;;;9.50;99.90;;;;;;4945501;29;20042;-72
2023/04/16 17:52:38;;;;;;;27.75;16.95;;;9.50;99.90;;;;;;4945862;29;20235;-72